createdAt,value
2022-11-23T00:00:49.429Z,48.3
2022-11-23T00:01:48.181Z,50.7
2022-11-23T00:02:04.201Z,49.4
2022-11-23T00:03:04.180Z,48.6
2022-11-23T00:04:05.480Z,48.5
2022-11-23T00:05:04.696Z,48.5
2022-11-23T00:06:04.391Z,48.5
2022-11-23T00:07:05.312Z,48.5
2022-11-23T00:08:05.303Z,48.5
2022-11-23T00:09:06.021Z,48.5
2022-11-23T00:10:05.374Z,48.5
2022-11-23T00:11:04.233Z,48.6
2022-11-23T00:12:04.241Z,48.6
2022-11-23T00:13:05.265Z,48.7
2022-11-23T00:14:04.516Z,48.7
2022-11-23T00:15:04.461Z,48.7
2022-11-23T00:16:04.337Z,48.7
2022-11-23T00:17:05.234Z,48.8
2022-11-23T00:18:04.238Z,48.8
2022-11-23T00:19:04.968Z,48.8
2022-11-23T00:20:05.384Z,48.9
2022-11-23T00:21:05.355Z,49.0
2022-11-23T00:22:04.567Z,49.0
2022-11-23T00:23:04.455Z,49.0
2022-11-23T00:24:05.663Z,49.0
2022-11-23T00:25:04.240Z,49.1
2022-11-23T00:26:04.236Z,49.1
2022-11-23T00:27:05.359Z,49.1
2022-11-23T00:28:04.176Z,49.1
2022-11-23T00:29:04.448Z,49.1
2022-11-23T00:30:06.602Z,49.2
2022-11-23T00:31:03.988Z,49.2
2022-11-23T00:32:04.270Z,49.2
2022-11-23T00:33:04.389Z,49.2
2022-11-23T00:34:04.033Z,49.2
2022-11-23T00:35:04.699Z,49.2
2022-11-23T00:36:06.681Z,49.2
2022-11-23T00:37:04.591Z,49.2
2022-11-23T00:38:04.510Z,49.2
2022-11-23T00:39:04.120Z,49.2
2022-11-23T00:40:04.335Z,49.2
2022-11-23T00:41:05.771Z,49.3
2022-11-23T00:42:03.902Z,49.3
2022-11-23T00:43:04.338Z,49.3
2022-11-23T00:44:08.273Z,49.4
2022-11-23T00:45:05.334Z,49.4
2022-11-23T00:46:09.180Z,49.4
2022-11-23T00:47:17.873Z,49.5
2022-11-23T00:48:06.523Z,49.6
2022-11-23T00:49:04.561Z,49.6
2022-11-23T00:50:43.899Z,49.6
2022-11-23T00:54:26.510Z,51.2
2022-11-23T00:54:32.649Z,51.5
2022-11-23T00:55:04.798Z,50.3
2022-11-23T00:56:05.876Z,50.1
2022-11-23T00:57:04.545Z,50.0
2022-11-23T00:58:04.471Z,50.0
2022-11-23T00:59:04.585Z,50.0
2022-11-23T01:00:04.784Z,50.0
2022-11-23T01:01:04.995Z,50.0
2022-11-23T01:02:04.965Z,50.0
2022-11-23T01:03:04.758Z,50.0
2022-11-23T01:04:07.787Z,50.1
2022-11-23T01:05:05.109Z,50.1
2022-11-23T01:06:05.019Z,50.1
2022-11-23T01:07:05.191Z,50.1
2022-11-23T01:08:04.633Z,50.1
2022-11-23T01:09:04.748Z,50.1
2022-11-23T01:10:05.147Z,50.1
2022-11-23T01:11:05.678Z,50.2
2022-11-23T01:12:04.756Z,50.2
2022-11-23T01:13:04.951Z,50.2
2022-11-23T01:14:04.332Z,50.2
2022-11-23T01:15:04.878Z,50.3
2022-11-23T01:16:04.668Z,50.2
2022-11-23T01:17:04.970Z,50.3
2022-11-23T01:18:04.849Z,50.3
2022-11-23T01:19:06.540Z,50.3
2022-11-23T01:20:04.761Z,50.3
2022-11-23T01:21:04.708Z,50.3
2022-11-23T01:22:05.078Z,50.4
2022-11-23T01:23:04.607Z,50.4
2022-11-23T01:24:04.762Z,50.4
2022-11-23T01:25:06.248Z,50.4
2022-11-23T01:26:05.464Z,50.5
2022-11-23T01:27:04.676Z,50.5
2022-11-23T01:28:05.162Z,50.5
2022-11-23T01:29:05.382Z,50.5
2022-11-23T01:30:05.960Z,50.5
2022-11-23T01:31:04.447Z,50.5
2022-11-23T01:32:04.793Z,50.5
2022-11-23T01:33:04.666Z,50.5
2022-11-23T01:34:04.902Z,50.6
2022-11-23T01:35:05.014Z,50.5
2022-11-23T01:36:06.014Z,50.6
2022-11-23T01:37:04.617Z,50.6
2022-11-23T01:38:04.242Z,50.6
2022-11-23T01:39:04.232Z,50.7
2022-11-23T01:40:04.307Z,50.7
2022-11-23T01:41:05.464Z,50.7
2022-11-23T01:42:05.708Z,50.7
2022-11-23T01:43:04.761Z,50.7
2022-11-23T01:44:04.267Z,50.7
2022-11-23T01:45:14.387Z,50.7
2022-11-23T01:47:08.347Z,52.1
2022-11-23T01:47:12.685Z,52.1
2022-11-23T01:48:05.159Z,51.1
2022-11-23T01:49:04.795Z,51.0
2022-11-23T01:50:20.691Z,51.0
2022-11-23T01:51:06.344Z,50.9
2022-11-23T01:52:04.720Z,50.9
2022-11-23T01:53:07.014Z,50.9
2022-11-23T01:54:04.945Z,50.9
2022-11-23T01:55:08.423Z,50.9
2022-11-23T01:56:04.638Z,50.9
2022-11-23T01:57:05.063Z,50.9
2022-11-23T01:58:04.874Z,50.9
2022-11-23T01:59:04.915Z,50.9
2022-11-23T02:00:05.855Z,50.9
2022-11-23T02:01:04.816Z,51.0
2022-11-23T02:02:04.762Z,51.0
2022-11-23T02:03:05.026Z,51.0
2022-11-23T02:04:05.095Z,51.0
2022-11-23T02:05:04.708Z,51.0
2022-11-23T02:06:05.739Z,51.0
2022-11-23T02:07:05.117Z,51.0
2022-11-23T02:08:04.729Z,51.1
2022-11-23T02:09:04.708Z,51.0
2022-11-23T02:10:05.352Z,51.1
2022-11-23T02:11:04.811Z,51.0
2022-11-23T02:12:04.854Z,51.1
2022-11-23T02:14:52.737Z,52.6
2022-11-23T02:15:15.814Z,52.1
2022-11-23T02:16:04.271Z,51.4
2022-11-23T02:17:04.102Z,51.3
2022-11-23T02:18:13.250Z,51.3
2022-11-23T02:19:05.001Z,51.2
2022-11-23T02:20:05.018Z,51.2
2022-11-23T02:21:04.808Z,51.2
2022-11-23T02:22:12.164Z,51.3
2022-11-23T02:23:08.861Z,51.2
2022-11-23T02:24:04.419Z,51.2
2022-11-23T02:25:05.763Z,51.2
2022-11-23T02:26:04.707Z,51.2
2022-11-23T02:27:05.061Z,51.2
2022-11-23T02:28:06.076Z,51.2
2022-11-23T02:29:05.587Z,51.3
2022-11-23T02:30:05.620Z,51.3
2022-11-23T02:31:04.450Z,51.3
2022-11-23T02:32:06.544Z,51.3
2022-11-23T02:33:04.696Z,51.3
2022-11-23T02:34:04.849Z,51.3
2022-11-23T02:35:04.506Z,51.3
2022-11-23T02:36:04.218Z,51.3
2022-11-23T02:37:05.426Z,51.3
2022-11-23T02:38:04.947Z,51.3
2022-11-23T02:39:05.777Z,51.3
2022-11-23T02:40:04.919Z,51.3
2022-11-23T02:41:04.197Z,51.3
2022-11-23T02:42:04.548Z,51.4
2022-11-23T02:43:04.769Z,51.4
2022-11-23T02:44:05.434Z,51.4
2022-11-23T02:45:04.862Z,51.4
2022-11-23T02:46:05.178Z,51.4
2022-11-23T02:47:05.578Z,51.4
2022-11-23T02:48:04.923Z,51.4
2022-11-23T02:49:04.694Z,51.4
2022-11-23T02:50:08.248Z,51.5
2022-11-23T02:51:04.650Z,51.5
2022-11-23T02:52:05.542Z,51.5
2022-11-23T02:53:04.277Z,51.5
2022-11-23T02:54:04.241Z,51.4
2022-11-23T02:55:04.214Z,51.5
2022-11-23T02:56:04.216Z,51.5
2022-11-23T02:57:05.038Z,51.5
2022-11-23T02:58:04.281Z,51.5
2022-11-23T02:59:04.214Z,51.5
2022-11-23T03:00:04.226Z,51.5
2022-11-23T03:01:04.221Z,51.5
2022-11-23T03:02:04.286Z,51.5
2022-11-23T03:03:04.209Z,51.5
2022-11-23T03:04:04.284Z,51.5
2022-11-23T03:05:04.225Z,51.5
2022-11-23T03:06:04.250Z,51.5
2022-11-23T03:07:04.235Z,51.5
2022-11-23T03:08:04.238Z,51.5
2022-11-23T03:09:04.212Z,51.6
2022-11-23T03:10:04.283Z,51.6
2022-11-23T03:11:04.203Z,51.6
2022-11-23T03:12:04.218Z,51.6
2022-11-23T03:13:04.218Z,51.7
2022-11-23T03:14:04.230Z,51.6
2022-11-23T03:15:04.219Z,51.6
2022-11-23T03:16:04.288Z,51.6
2022-11-23T03:17:04.208Z,51.6
2022-11-23T03:18:04.253Z,51.6
2022-11-23T03:19:04.229Z,51.6
2022-11-23T03:21:34.571Z,51.6
2022-11-23T03:21:38.573Z,54.0
2022-11-23T03:22:04.230Z,52.2
2022-11-23T03:23:04.221Z,51.8
2022-11-23T03:24:04.258Z,51.8
2022-11-23T03:25:04.250Z,51.7
2022-11-23T03:26:07.372Z,51.7
2022-11-23T03:27:04.269Z,51.7
2022-11-23T03:28:04.241Z,51.7
2022-11-23T03:29:04.222Z,51.7
2022-11-23T03:30:04.242Z,51.7
2022-11-23T03:31:04.232Z,51.7
2022-11-23T03:32:04.242Z,51.7
2022-11-23T03:33:04.260Z,51.7
2022-11-23T03:34:04.241Z,51.7
2022-11-23T03:35:04.227Z,51.7
2022-11-23T03:36:04.255Z,51.7
2022-11-23T03:37:04.208Z,51.7
2022-11-23T03:38:04.259Z,51.7
2022-11-23T03:39:04.272Z,51.7
2022-11-23T03:40:04.254Z,51.7
2022-11-23T03:41:04.236Z,51.7
2022-11-23T03:42:04.239Z,51.7
2022-11-23T03:43:04.220Z,51.8
2022-11-23T03:44:04.489Z,51.8
2022-11-23T03:45:04.253Z,51.8
2022-11-23T03:46:04.237Z,51.8
2022-11-23T03:47:04.250Z,51.8
2022-11-23T03:48:04.245Z,51.8
2022-11-23T03:49:04.223Z,51.8
2022-11-23T03:50:04.263Z,51.8
2022-11-23T03:51:04.247Z,51.8
2022-11-23T03:52:04.235Z,51.8
2022-11-23T03:53:04.241Z,51.8
2022-11-23T03:54:04.257Z,51.8
2022-11-23T03:55:04.220Z,51.8
2022-11-23T03:56:04.249Z,51.8
2022-11-23T03:57:04.252Z,51.8
2022-11-23T03:58:04.274Z,51.8
2022-11-23T03:59:04.229Z,51.7
2022-11-23T04:00:04.260Z,51.8
2022-11-23T04:01:04.295Z,51.8
2022-11-23T04:02:04.256Z,51.8
2022-11-23T04:03:04.260Z,51.9
2022-11-23T04:04:04.259Z,51.8
2022-11-23T04:05:04.223Z,51.9
2022-11-23T04:06:04.245Z,51.9
2022-11-23T04:07:04.297Z,51.9
2022-11-23T04:08:04.253Z,51.9
2022-11-23T04:09:04.255Z,51.9
2022-11-23T04:10:04.257Z,51.9
2022-11-23T04:11:04.231Z,51.9
2022-11-23T04:12:04.254Z,51.8
2022-11-23T04:13:04.221Z,51.9
2022-11-23T04:15:35.471Z,53.3
2022-11-23T04:16:04.134Z,52.3
2022-11-23T04:17:04.165Z,52.0
2022-11-23T04:18:04.148Z,51.9
2022-11-23T04:19:04.183Z,51.9
2022-11-23T04:20:04.168Z,51.9
2022-11-23T04:21:04.215Z,51.9
2022-11-23T04:22:04.150Z,51.9
2022-11-23T04:23:05.577Z,51.9
2022-11-23T04:24:04.167Z,51.9
2022-11-23T04:25:04.199Z,51.9
2022-11-23T04:26:04.212Z,51.9
2022-11-23T04:27:04.218Z,51.9
2022-11-23T04:28:04.164Z,51.9
2022-11-23T04:29:04.172Z,51.9
2022-11-23T04:30:04.146Z,51.9
2022-11-23T04:31:04.199Z,51.9
2022-11-23T04:32:04.150Z,51.9
2022-11-23T04:33:04.198Z,51.9
2022-11-23T04:34:04.153Z,51.9
2022-11-23T04:35:04.178Z,51.9
2022-11-23T04:36:04.161Z,51.9
2022-11-23T04:37:06.782Z,51.9
2022-11-23T04:38:04.153Z,52.0
2022-11-23T04:39:04.199Z,52.0
2022-11-23T04:40:04.168Z,51.9
2022-11-23T04:41:04.175Z,51.9
2022-11-23T04:42:04.156Z,51.9
2022-11-23T04:43:04.202Z,51.9
2022-11-23T04:44:04.161Z,51.9
2022-11-23T04:45:04.208Z,51.9
2022-11-23T04:46:04.152Z,51.9
2022-11-23T04:47:04.181Z,51.9
2022-11-23T04:48:04.151Z,51.9
2022-11-23T04:49:04.190Z,51.9
2022-11-23T04:50:04.163Z,51.9
2022-11-23T04:51:04.217Z,51.9
2022-11-23T04:52:04.153Z,51.9
2022-11-23T04:53:04.177Z,51.9
2022-11-23T04:54:04.179Z,51.9
2022-11-23T04:55:04.182Z,51.9
2022-11-23T04:56:04.160Z,51.8
2022-11-23T04:57:04.210Z,51.8
2022-11-23T04:58:04.165Z,51.6
2022-11-23T04:59:04.176Z,51.5
2022-11-23T05:00:04.181Z,51.4
2022-11-23T05:01:04.228Z,51.3
2022-11-23T05:02:04.149Z,51.2
2022-11-23T05:03:04.213Z,51.1
2022-11-23T05:04:04.156Z,51.1
2022-11-23T05:05:04.183Z,51.0
2022-11-23T05:06:04.170Z,51.0
2022-11-23T05:07:04.278Z,50.9
2022-11-23T05:08:04.164Z,50.8
2022-11-23T05:09:04.228Z,50.8
2022-11-23T05:10:04.166Z,50.7
2022-11-23T05:11:04.194Z,50.6
2022-11-23T05:12:04.151Z,50.6
2022-11-23T05:13:04.195Z,50.5
2022-11-23T05:14:04.162Z,50.4
2022-11-23T05:15:04.264Z,50.3
2022-11-23T05:16:04.154Z,50.2
2022-11-23T05:17:04.191Z,50.2
2022-11-23T05:18:04.160Z,50.2
2022-11-23T05:19:04.191Z,50.1
2022-11-23T05:20:04.159Z,50.0
2022-11-23T05:21:04.221Z,50.0
2022-11-23T05:22:04.168Z,49.9
2022-11-23T05:23:04.192Z,49.9
2022-11-23T05:24:04.176Z,49.8
2022-11-23T05:25:04.185Z,49.7
2022-11-23T05:26:04.163Z,49.7
2022-11-23T05:27:04.203Z,49.6
2022-11-23T05:28:23.287Z,49.6
2022-11-23T05:29:04.180Z,49.9
2022-11-23T05:30:04.163Z,49.5
2022-11-23T05:31:04.185Z,49.4
2022-11-23T05:32:04.162Z,49.3
2022-11-23T05:33:04.290Z,49.3
2022-11-23T05:34:04.169Z,49.2
2022-11-23T05:35:04.206Z,49.2
2022-11-23T05:36:04.162Z,49.1
2022-11-23T05:37:04.193Z,49.0
2022-11-23T05:38:04.220Z,49.0
2022-11-23T05:39:04.410Z,48.9
2022-11-23T05:40:04.281Z,48.9
2022-11-23T05:41:04.329Z,48.9
2022-11-23T05:42:04.294Z,48.8
2022-11-23T05:43:04.360Z,48.8
2022-11-23T05:44:04.175Z,48.7
2022-11-23T05:45:08.633Z,48.7
2022-11-23T05:46:04.167Z,48.7
2022-11-23T05:47:04.203Z,48.6
2022-11-23T05:48:04.197Z,48.5
2022-11-23T05:49:04.221Z,48.5
2022-11-23T05:50:04.199Z,48.5
2022-11-23T05:51:05.572Z,48.4
2022-11-23T05:52:04.415Z,48.4
2022-11-23T05:53:04.190Z,48.3
2022-11-23T05:54:04.170Z,48.3
2022-11-23T05:55:04.249Z,48.2
2022-11-23T05:56:04.185Z,48.2
2022-11-23T05:57:04.225Z,48.2
2022-11-23T05:58:04.166Z,48.2
2022-11-23T05:59:04.223Z,48.1
2022-11-23T06:00:04.164Z,48.0
2022-11-23T06:01:04.183Z,48.4
2022-11-23T06:02:04.200Z,48.3
2022-11-23T06:03:04.232Z,48.2
2022-11-23T06:04:04.193Z,48.3
2022-11-23T06:05:04.216Z,48.2
2022-11-23T06:06:04.196Z,48.2
2022-11-23T06:07:04.322Z,48.1
2022-11-23T06:08:04.182Z,48.1
2022-11-23T06:09:04.234Z,48.1
2022-11-23T06:10:04.164Z,48.1
2022-11-23T06:11:04.190Z,48.1
2022-11-23T06:12:04.190Z,48.1
2022-11-23T06:13:04.232Z,48.0
2022-11-23T06:14:04.612Z,48.0
2022-11-23T06:15:04.260Z,48.0
2022-11-23T06:16:04.185Z,48.0
2022-11-23T06:17:04.225Z,48.0
2022-11-23T06:18:04.185Z,48.0
2022-11-23T06:19:05.142Z,48.0
2022-11-23T06:20:04.177Z,48.0
2022-11-23T06:21:04.265Z,48.0
2022-11-23T06:22:04.212Z,48.0
2022-11-23T06:23:04.199Z,48.0
2022-11-23T06:24:04.175Z,48.1
2022-11-23T06:25:04.205Z,48.1
2022-11-23T06:26:04.186Z,48.1
2022-11-23T06:27:04.245Z,48.1
2022-11-23T06:28:04.192Z,48.1
2022-11-23T06:29:04.198Z,48.1
2022-11-23T06:30:04.170Z,48.2
2022-11-23T06:31:04.209Z,48.1
2022-11-23T06:32:04.177Z,48.1
2022-11-23T06:33:04.235Z,48.2
2022-11-23T06:35:58.910Z,49.5
2022-11-23T06:36:04.609Z,49.5
2022-11-23T06:37:04.634Z,48.4
2022-11-23T06:38:04.639Z,48.3
2022-11-23T06:39:04.732Z,48.3
2022-11-23T06:40:04.745Z,48.3
2022-11-23T06:41:04.751Z,48.3
2022-11-23T06:42:23.763Z,48.3
2022-11-23T06:43:04.745Z,48.7
2022-11-23T06:44:04.641Z,48.5
2022-11-23T06:45:04.685Z,48.5
2022-11-23T06:46:04.616Z,48.5
2022-11-23T06:47:04.654Z,48.5
2022-11-23T06:48:04.605Z,48.5
2022-11-23T06:49:04.654Z,48.5
2022-11-23T06:50:04.646Z,48.5
2022-11-23T06:51:04.643Z,48.5
2022-11-23T06:52:04.614Z,48.6
2022-11-23T06:53:04.634Z,48.6
2022-11-23T06:54:04.610Z,48.6
2022-11-23T06:55:04.635Z,48.6
2022-11-23T06:56:04.675Z,48.6
2022-11-23T06:57:04.650Z,48.6
2022-11-23T06:58:06.327Z,48.6
2022-11-23T06:59:04.637Z,48.6
2022-11-23T07:00:04.631Z,48.6
2022-11-23T07:01:04.781Z,48.6
2022-11-23T07:02:04.641Z,48.6
2022-11-23T07:03:04.643Z,48.6
2022-11-23T07:04:04.606Z,48.7
2022-11-23T07:05:04.646Z,48.7
2022-11-23T07:06:04.628Z,48.7
2022-11-23T07:07:04.765Z,48.7
2022-11-23T07:08:04.668Z,48.8
2022-11-23T07:09:04.642Z,48.8
2022-11-23T07:10:07.272Z,48.8
2022-11-23T07:11:04.649Z,48.9
2022-11-23T07:12:04.613Z,48.8
2022-11-23T07:13:04.667Z,48.9
2022-11-23T07:14:04.655Z,48.9
2022-11-23T07:15:04.644Z,48.9
2022-11-23T07:16:04.639Z,49.0
2022-11-23T07:17:04.652Z,49.1
2022-11-23T07:18:04.630Z,49.1
2022-11-23T07:19:04.651Z,49.2
2022-11-23T07:20:04.702Z,49.2
2022-11-23T07:21:04.632Z,49.3
2022-11-23T07:22:04.667Z,49.3
2022-11-23T07:23:04.617Z,49.3
2022-11-23T07:24:04.641Z,49.4
2022-11-23T07:25:04.626Z,49.4
2022-11-23T07:26:04.686Z,49.4
2022-11-23T07:27:04.687Z,49.3
2022-11-23T07:28:04.707Z,49.4
2022-11-23T07:29:04.625Z,49.4
2022-11-23T07:30:04.647Z,49.3
2022-11-23T07:31:04.619Z,49.3
2022-11-23T07:32:04.681Z,49.3
2022-11-23T07:33:04.661Z,49.3
2022-11-23T07:34:04.649Z,49.2
2022-11-23T07:35:04.635Z,49.2
2022-11-23T07:36:04.662Z,49.2
2022-11-23T07:37:04.628Z,49.1
2022-11-23T07:38:04.639Z,49.1
2022-11-23T07:39:04.674Z,49.1
2022-11-23T07:40:05.099Z,49.0
2022-11-23T07:41:04.659Z,49.0
2022-11-23T07:42:31.079Z,48.9
2022-11-23T07:43:04.661Z,49.1
2022-11-23T07:44:05.687Z,48.9
2022-11-23T07:45:04.647Z,48.9
2022-11-23T07:46:04.644Z,48.8
2022-11-23T07:47:04.632Z,48.8
2022-11-23T07:48:04.646Z,48.8
2022-11-23T07:49:04.643Z,48.8
2022-11-23T07:50:04.666Z,48.8
2022-11-23T07:51:04.662Z,48.8
2022-11-23T07:52:04.667Z,48.8
2022-11-23T07:53:04.642Z,48.8
2022-11-23T07:54:04.667Z,48.8
2022-11-23T07:55:04.650Z,48.8
2022-11-23T07:56:04.659Z,48.7
2022-11-23T07:57:04.660Z,48.8
2022-11-23T07:58:04.652Z,48.8
2022-11-23T07:59:04.625Z,48.8
2022-11-23T08:00:04.673Z,48.8
2022-11-23T08:01:04.648Z,48.8
2022-11-23T08:02:04.689Z,48.9
2022-11-23T08:03:26.530Z,48.9
2022-11-23T08:04:04.649Z,49.1
2022-11-23T08:05:06.886Z,49.0
2022-11-23T08:06:04.709Z,49.1
2022-11-23T08:07:04.691Z,49.1
2022-11-23T08:08:04.676Z,49.1
2022-11-23T08:09:04.657Z,49.1
2022-11-23T08:10:04.674Z,49.1
2022-11-23T08:11:04.649Z,49.1
2022-11-23T08:12:04.676Z,49.1
2022-11-23T08:13:04.628Z,49.1
2022-11-23T08:14:04.724Z,49.1
2022-11-23T08:15:04.666Z,49.1
2022-11-23T08:16:04.668Z,49.2
2022-11-23T08:17:04.638Z,49.2
2022-11-23T08:18:04.657Z,49.2
2022-11-23T08:19:04.676Z,49.3
2022-11-23T08:20:04.671Z,49.3
2022-11-23T08:21:04.690Z,49.4
2022-11-23T08:22:04.674Z,49.4
2022-11-23T08:23:04.654Z,49.4
2022-11-23T08:24:04.685Z,49.4
2022-11-23T08:25:04.641Z,49.5
2022-11-23T08:26:07.828Z,49.5
2022-11-23T08:27:04.673Z,49.5
2022-11-23T08:28:04.656Z,49.5
2022-11-23T08:29:04.631Z,49.5
2022-11-23T08:30:04.654Z,49.5
2022-11-23T08:31:04.644Z,49.6
2022-11-23T08:32:04.670Z,49.6
2022-11-23T08:33:04.677Z,49.6
2022-11-23T08:34:04.698Z,49.5
2022-11-23T08:35:04.646Z,49.5
2022-11-23T08:36:04.671Z,49.5
2022-11-23T08:37:04.659Z,49.5
2022-11-23T08:38:04.664Z,49.5
2022-11-23T08:39:04.644Z,49.5
2022-11-23T08:40:04.730Z,49.4
2022-11-23T08:41:04.645Z,49.4
2022-11-23T08:42:04.693Z,49.4
2022-11-23T08:43:04.640Z,49.3
2022-11-23T08:44:04.690Z,49.3
2022-11-23T08:45:04.654Z,49.2
2022-11-23T08:46:07.998Z,49.2
2022-11-23T08:47:04.663Z,49.2
2022-11-23T08:48:04.681Z,49.1
2022-11-23T08:49:04.636Z,49.1
2022-11-23T08:50:04.673Z,49.1
2022-11-23T08:51:04.647Z,49.0
2022-11-23T08:52:04.713Z,49.0
2022-11-23T08:53:04.644Z,49.0
2022-11-23T08:54:04.681Z,49.0
2022-11-23T08:55:04.636Z,49.0
2022-11-23T08:56:04.698Z,49.0
2022-11-23T08:57:04.669Z,49.0
2022-11-23T08:58:09.015Z,49.0
2022-11-23T08:59:04.652Z,49.0
2022-11-23T09:00:04.678Z,48.9
2022-11-23T09:01:04.672Z,48.9
2022-11-23T09:02:04.674Z,48.9
2022-11-23T09:03:04.658Z,49.0
2022-11-23T09:04:04.700Z,49.0
2022-11-23T09:05:04.644Z,49.0
2022-11-23T09:06:04.679Z,49.1
2022-11-23T09:07:04.711Z,49.1
2022-11-23T09:08:04.671Z,49.1
2022-11-23T09:09:04.667Z,49.1
2022-11-23T09:10:04.720Z,49.1
2022-11-23T09:11:04.675Z,49.1
2022-11-23T09:12:04.675Z,49.1
2022-11-23T09:13:04.654Z,49.2
2022-11-23T09:14:04.684Z,49.2
2022-11-23T09:15:04.658Z,49.2
2022-11-23T09:16:04.764Z,49.2
2022-11-23T09:17:04.669Z,49.2
2022-11-23T09:18:04.689Z,49.2
2022-11-23T09:19:04.677Z,49.3
2022-11-23T09:20:04.691Z,49.2
2022-11-23T09:21:04.779Z,49.3
2022-11-23T09:22:04.745Z,49.3
2022-11-23T09:23:07.981Z,49.3
2022-11-23T09:24:04.762Z,49.3
2022-11-23T09:25:04.708Z,49.3
2022-11-23T09:26:04.708Z,49.3
2022-11-23T09:27:04.682Z,49.3
2022-11-23T09:28:04.709Z,49.3
2022-11-23T09:29:04.665Z,49.4
2022-11-23T09:30:04.695Z,49.4
2022-11-23T09:31:04.785Z,49.4
2022-11-23T09:32:04.790Z,49.4
2022-11-23T09:33:04.764Z,49.3
2022-11-23T09:34:04.876Z,49.3
2022-11-23T09:35:04.663Z,49.3
2022-11-23T09:36:04.695Z,49.3
2022-11-23T09:37:04.668Z,49.3
2022-11-23T09:38:04.675Z,49.3
2022-11-23T09:39:04.681Z,49.2
2022-11-23T09:40:04.725Z,49.2
2022-11-23T09:41:04.666Z,49.2
2022-11-23T09:42:04.692Z,49.2
2022-11-23T09:43:04.658Z,49.1
2022-11-23T09:44:04.699Z,49.1
2022-11-23T09:45:04.675Z,49.1
2022-11-23T09:46:04.712Z,49.1
2022-11-23T09:47:04.652Z,49.1
2022-11-23T09:48:04.685Z,49.0
2022-11-23T09:49:04.664Z,49.0
2022-11-23T09:50:04.693Z,49.0
2022-11-23T09:51:04.711Z,49.0
2022-11-23T09:52:04.752Z,49.0
2022-11-23T09:53:04.734Z,49.0
2022-11-23T09:54:04.718Z,49.0
2022-11-23T09:55:04.666Z,49.0
2022-11-23T09:56:04.684Z,49.0
2022-11-23T09:57:04.660Z,49.0
2022-11-23T09:58:04.703Z,49.0
2022-11-23T09:59:04.667Z,49.0
2022-11-23T10:00:04.691Z,49.0
2022-11-23T10:01:04.663Z,49.0
2022-11-23T10:02:04.748Z,49.0
2022-11-23T10:03:04.733Z,49.0
2022-11-23T10:04:04.729Z,49.1
2022-11-23T10:05:04.679Z,49.1
2022-11-23T10:06:04.695Z,49.1
2022-11-23T10:07:05.636Z,49.2
2022-11-23T10:08:04.690Z,49.2
2022-11-23T10:09:04.671Z,49.2
2022-11-23T10:10:04.718Z,49.2
2022-11-23T10:11:04.688Z,49.3
2022-11-23T10:12:04.695Z,49.2
2022-11-23T10:13:04.662Z,49.2
2022-11-23T10:14:04.705Z,49.3
2022-11-23T10:15:04.671Z,49.2
2022-11-23T10:16:04.728Z,49.2
2022-11-23T10:17:04.669Z,49.2
2022-11-23T10:18:04.719Z,49.2
2022-11-23T10:19:04.664Z,49.3
2022-11-23T10:20:04.721Z,49.2
2022-11-23T10:21:04.668Z,49.3
2022-11-23T10:22:04.717Z,49.2
2022-11-23T10:23:04.674Z,49.2
2022-11-23T10:24:04.692Z,49.2
2022-11-23T10:25:04.670Z,49.2
2022-11-23T10:26:04.709Z,49.2
2022-11-23T10:27:04.691Z,49.2
2022-11-23T10:28:04.746Z,49.2
2022-11-23T10:29:04.689Z,49.2
2022-11-23T10:30:04.696Z,49.2
2022-11-23T10:31:04.672Z,49.2
2022-11-23T10:32:04.700Z,49.3
2022-11-23T10:33:04.690Z,49.3
2022-11-23T10:34:04.734Z,49.3
2022-11-23T10:35:04.678Z,49.3
2022-11-23T10:36:04.694Z,49.3
2022-11-23T10:37:04.680Z,49.4
2022-11-23T10:38:04.706Z,49.4
2022-11-23T10:39:04.683Z,49.4
2022-11-23T10:40:04.723Z,49.4
2022-11-23T10:41:04.697Z,49.4
2022-11-23T10:42:04.707Z,49.4
2022-11-23T10:43:04.688Z,49.4
2022-11-23T10:45:03.768Z,49.3
2022-11-23T10:45:07.745Z,51.3
2022-11-23T10:46:04.706Z,49.5
2022-11-23T10:47:04.676Z,49.4
2022-11-23T10:48:04.740Z,49.3
2022-11-23T10:49:04.677Z,49.3
2022-11-23T10:50:04.724Z,49.3
2022-11-23T10:51:04.720Z,49.3
2022-11-23T10:52:04.701Z,49.2
2022-11-23T10:53:04.683Z,49.2
2022-11-23T10:54:05.648Z,49.2
2022-11-23T10:55:04.673Z,49.3
2022-11-23T10:56:04.737Z,49.3
2022-11-23T10:57:04.893Z,49.3
2022-11-23T10:58:04.711Z,49.3
2022-11-23T10:59:04.692Z,49.3
2022-11-23T11:00:04.707Z,49.3
2022-11-23T11:01:04.680Z,49.4
2022-11-23T11:02:04.783Z,49.4
2022-11-23T11:03:04.731Z,49.4
2022-11-23T11:04:04.713Z,49.4
2022-11-23T11:05:04.684Z,49.4
2022-11-23T11:06:09.514Z,49.4
2022-11-23T11:07:04.755Z,49.5
2022-11-23T11:08:04.740Z,49.5
2022-11-23T11:09:07.314Z,49.5
2022-11-23T11:10:04.723Z,49.6
2022-11-23T11:11:04.823Z,49.5
2022-11-23T11:12:04.698Z,49.5
2022-11-23T11:13:04.736Z,49.5
2022-11-23T11:14:04.718Z,49.6
2022-11-23T11:15:10.969Z,49.6
2022-11-23T11:16:04.712Z,49.6
2022-11-23T11:17:04.679Z,49.6
2022-11-23T11:18:04.711Z,49.6
2022-11-23T11:19:04.713Z,49.7
2022-11-23T11:20:04.723Z,49.7
2022-11-23T11:21:04.786Z,49.7
2022-11-23T11:22:04.712Z,49.7
2022-11-23T11:23:04.696Z,49.7
2022-11-23T11:24:04.701Z,49.8
2022-11-23T11:25:11.419Z,49.9
2022-11-23T11:26:10.887Z,49.9
2022-11-23T11:27:04.556Z,49.8
2022-11-23T11:28:05.286Z,49.9
2022-11-23T11:29:04.548Z,49.9
2022-11-23T11:30:04.581Z,49.9
2022-11-23T11:31:04.570Z,49.9
2022-11-23T11:32:04.600Z,49.9
2022-11-23T11:33:04.922Z,49.9
2022-11-23T11:34:04.580Z,49.9
2022-11-23T11:35:04.559Z,49.9
2022-11-23T11:36:04.595Z,49.8
2022-11-23T11:37:04.557Z,49.8
2022-11-23T11:38:04.606Z,49.7
2022-11-23T11:39:18.661Z,49.7
2022-11-23T11:40:04.690Z,49.7
2022-11-23T11:41:04.565Z,49.6
2022-11-23T11:42:04.578Z,49.5
2022-11-23T11:43:04.632Z,49.5
2022-11-23T11:44:04.607Z,49.4
2022-11-23T11:45:04.558Z,49.4
2022-11-23T11:46:28.069Z,49.3
2022-11-23T11:47:04.570Z,49.4
2022-11-23T11:48:04.590Z,49.3
2022-11-23T11:49:04.566Z,49.2
2022-11-23T11:50:04.617Z,49.2
2022-11-23T11:51:04.781Z,49.1
2022-11-23T11:52:04.603Z,49.1
2022-11-23T11:53:04.624Z,49.1
2022-11-23T11:54:04.580Z,49.0
2022-11-23T11:55:04.606Z,49.0
2022-11-23T11:56:11.374Z,49.1
2022-11-23T11:57:04.059Z,49.1
2022-11-23T11:58:04.100Z,49.0
2022-11-23T11:59:04.070Z,49.1
2022-11-23T12:00:04.082Z,49.1
2022-11-23T12:01:04.153Z,49.1
2022-11-23T12:02:06.338Z,49.1
2022-11-23T12:03:04.792Z,49.2
2022-11-23T12:04:04.214Z,49.2
2022-11-23T12:05:04.180Z,49.2
2022-11-23T12:06:04.119Z,49.2
2022-11-23T12:07:04.109Z,49.2
2022-11-23T12:08:04.233Z,49.2
2022-11-23T12:09:04.074Z,49.2
2022-11-23T12:10:04.098Z,49.2
2022-11-23T12:11:04.116Z,49.3
2022-11-23T12:12:04.366Z,49.3
2022-11-23T12:13:04.107Z,49.3
2022-11-23T12:14:04.277Z,49.4
2022-11-23T12:15:20.253Z,49.4
2022-11-23T12:16:04.116Z,49.7
2022-11-23T12:17:31.520Z,49.5
2022-11-23T12:18:04.096Z,49.8
2022-11-23T12:19:04.108Z,49.6
2022-11-23T12:20:04.100Z,49.6
2022-11-23T12:21:04.466Z,49.7
2022-11-23T12:22:04.176Z,49.7
2022-11-23T12:23:04.153Z,49.7
2022-11-23T12:24:04.103Z,49.7
2022-11-23T12:25:04.119Z,49.7
2022-11-23T12:26:04.111Z,49.6
2022-11-23T12:27:04.075Z,49.7
2022-11-23T12:28:04.096Z,49.7
2022-11-23T12:29:04.072Z,49.7
2022-11-23T12:30:04.112Z,49.7
2022-11-23T12:31:04.115Z,49.7
2022-11-23T12:32:04.096Z,49.6
2022-11-23T12:33:04.088Z,49.6
2022-11-23T12:34:04.112Z,49.6
2022-11-23T12:35:04.075Z,49.5
2022-11-23T12:36:04.122Z,49.6
2022-11-23T12:37:04.180Z,49.5
2022-11-23T12:38:04.132Z,49.5
2022-11-23T12:39:04.080Z,49.5
2022-11-23T12:40:04.143Z,49.4
2022-11-23T12:41:04.076Z,49.3
2022-11-23T12:42:04.128Z,49.2
2022-11-23T12:43:04.118Z,49.1
2022-11-23T12:44:04.113Z,49.1
2022-11-23T12:45:04.105Z,49.1
2022-11-23T12:46:04.125Z,49.0
2022-11-23T12:47:04.081Z,49.0
2022-11-23T12:48:30.600Z,49.9
2022-11-23T12:49:04.378Z,49.2
2022-11-23T12:50:04.295Z,49.0
2022-11-23T12:51:04.248Z,49.0
2022-11-23T12:52:04.271Z,49.0
2022-11-23T12:53:04.312Z,48.9
2022-11-23T12:54:04.330Z,48.9
2022-11-23T12:55:04.244Z,48.9
2022-11-23T12:56:04.281Z,48.9
2022-11-23T12:57:04.275Z,48.8
2022-11-23T12:58:04.267Z,48.8
2022-11-23T12:59:04.243Z,48.8
2022-11-23T13:00:04.299Z,48.9
2022-11-23T13:01:04.238Z,48.9
2022-11-23T13:02:04.622Z,48.9
2022-11-23T13:03:04.241Z,48.9
2022-11-23T13:04:04.278Z,49.0
2022-11-23T13:05:04.241Z,49.0
2022-11-23T13:06:04.309Z,49.0
2022-11-23T13:07:28.098Z,49.0
2022-11-23T13:08:04.375Z,49.3
2022-11-23T13:09:05.192Z,49.1
2022-11-23T13:10:04.331Z,49.2
2022-11-23T13:11:04.269Z,49.2
2022-11-23T13:12:04.305Z,49.2
2022-11-23T13:13:04.289Z,49.2
2022-11-23T13:14:04.280Z,49.2
2022-11-23T13:15:04.241Z,49.2
2022-11-23T13:16:04.968Z,49.2
2022-11-23T13:17:04.321Z,49.3
2022-11-23T13:18:04.284Z,49.3
2022-11-23T13:19:04.850Z,49.4
2022-11-23T13:20:04.273Z,49.4
2022-11-23T13:21:04.784Z,49.4
2022-11-23T13:22:04.367Z,49.4
2022-11-23T13:23:04.240Z,49.4